sensor_id;sensor_type;location;lat;lon;timestamp;P1;durP1;ratioP1;P2;durP2;ratioP2
30617;SDS011;17384;51.214;9.202;2024-01-16T00:01:45;10.65;;;5.32;;
30617;SDS011;17384;51.214;9.202;2024-01-16T00:04:11;10.77;;;5.53;;
30617;SDS011;17384;51.214;9.202;2024-01-16T00:06:40;13.05;;;4.65;;
30617;SDS011;17384;51.214;9.202;2024-01-16T00:09:06;11.43;;;4.95;;
30617;SDS011;17384;51.214;9.202;2024-01-16T00:11:32;9.25;;;4.40;;
30617;SDS011;17384;51.214;9.202;2024-01-16T00:13:57;8.38;;;4.88;;
30617;SDS011;17384;51.214;9.202;2024-01-16T00:16:23;9.70;;;4.95;;
30617;SDS011;17384;51.214;9.202;2024-01-16T00:18:48;8.25;;;4.65;;
30617;SDS011;17384;51.214;9.202;2024-01-16T00:21:14;14.35;;;4.38;;
30617;SDS011;17384;51.214;9.202;2024-01-16T00:23:39;7.78;;;4.13;;
30617;SDS011;17384;51.214;9.202;2024-01-16T00:26:05;13.10;;;4.13;;
30617;SDS011;17384;51.214;9.202;2024-01-16T00:28:31;14.15;;;4.90;;
30617;SDS011;17384;51.214;9.202;2024-01-16T00:30:57;10.38;;;4.80;;
30617;SDS011;17384;51.214;9.202;2024-01-16T00:33:22;9.23;;;4.43;;
30617;SDS011;17384;51.214;9.202;2024-01-16T00:35:48;8.65;;;4.60;;
30617;SDS011;17384;51.214;9.202;2024-01-16T00:38:13;14.10;;;5.28;;
30617;SDS011;17384;51.214;9.202;2024-01-16T00:40:39;9.98;;;4.93;;
30617;SDS011;17384;51.214;9.202;2024-01-16T00:43:04;10.82;;;4.85;;
30617;SDS011;17384;51.214;9.202;2024-01-16T00:45:30;11.05;;;5.07;;
30617;SDS011;17384;51.214;9.202;2024-01-16T00:47:55;11.07;;;4.63;;
30617;SDS011;17384;51.214;9.202;2024-01-16T00:50:21;10.15;;;5.30;;
30617;SDS011;17384;51.214;9.202;2024-01-16T00:52:47;18.40;;;4.05;;
30617;SDS011;17384;51.214;9.202;2024-01-16T00:55:12;13.48;;;4.20;;
30617;SDS011;17384;51.214;9.202;2024-01-16T00:57:38;11.40;;;4.32;;
30617;SDS011;17384;51.214;9.202;2024-01-16T01:00:04;14.50;;;4.97;;
30617;SDS011;17384;51.214;9.202;2024-01-16T01:02:30;9.80;;;5.00;;
30617;SDS011;17384;51.214;9.202;2024-01-16T01:04:55;13.40;;;4.65;;
30617;SDS011;17384;51.214;9.202;2024-01-16T01:07:21;11.45;;;5.45;;
30617;SDS011;17384;51.214;9.202;2024-01-16T01:09:46;13.30;;;4.18;;
30617;SDS011;17384;51.214;9.202;2024-01-16T01:12:12;12.07;;;4.10;;
30617;SDS011;17384;51.214;9.202;2024-01-16T01:14:38;21.00;;;5.45;;
30617;SDS011;17384;51.214;9.202;2024-01-16T01:17:03;6.07;;;4.05;;
30617;SDS011;17384;51.214;9.202;2024-01-16T01:19:29;11.70;;;3.85;;
30617;SDS011;17384;51.214;9.202;2024-01-16T01:21:55;11.70;;;4.40;;
30617;SDS011;17384;51.214;9.202;2024-01-16T01:24:20;7.18;;;3.53;;
30617;SDS011;17384;51.214;9.202;2024-01-16T01:26:46;18.67;;;5.47;;
30617;SDS011;17384;51.214;9.202;2024-01-16T01:29:12;10.68;;;3.83;;
30617;SDS011;17384;51.214;9.202;2024-01-16T01:31:37;10.48;;;3.90;;
30617;SDS011;17384;51.214;9.202;2024-01-16T01:34:03;11.48;;;3.80;;
30617;SDS011;17384;51.214;9.202;2024-01-16T01:36:29;8.35;;;4.32;;
30617;SDS011;17384;51.214;9.202;2024-01-16T01:38:55;11.13;;;3.85;;
30617;SDS011;17384;51.214;9.202;2024-01-16T01:41:20;13.43;;;4.45;;
30617;SDS011;17384;51.214;9.202;2024-01-16T01:43:46;11.70;;;3.75;;
30617;SDS011;17384;51.214;9.202;2024-01-16T01:46:18;5.78;;;3.72;;
30617;SDS011;17384;51.214;9.202;2024-01-16T01:48:45;17.08;;;4.53;;
30617;SDS011;17384;51.214;9.202;2024-01-16T01:51:13;7.93;;;3.85;;
30617;SDS011;17384;51.214;9.202;2024-01-16T01:53:40;12.70;;;4.15;;
30617;SDS011;17384;51.214;9.202;2024-01-16T01:56:10;14.02;;;4.13;;
30617;SDS011;17384;51.214;9.202;2024-01-16T01:58:41;12.10;;;3.80;;
30617;SDS011;17384;51.214;9.202;2024-01-16T02:01:09;11.05;;;3.92;;
30617;SDS011;17384;51.214;9.202;2024-01-16T02:03:40;13.13;;;3.72;;
30617;SDS011;17384;51.214;9.202;2024-01-16T02:06:08;14.40;;;3.38;;
30617;SDS011;17384;51.214;9.202;2024-01-16T02:08:35;17.42;;;4.40;;
30617;SDS011;17384;51.214;9.202;2024-01-16T02:11:00;7.35;;;3.40;;
30617;SDS011;17384;51.214;9.202;2024-01-16T02:13:26;7.93;;;3.33;;
30617;SDS011;17384;51.214;9.202;2024-01-16T02:15:51;10.77;;;3.67;;
30617;SDS011;17384;51.214;9.202;2024-01-16T02:18:17;6.57;;;3.55;;
30617;SDS011;17384;51.214;9.202;2024-01-16T02:20:43;4.90;;;3.17;;
30617;SDS011;17384;51.214;9.202;2024-01-16T02:23:09;10.43;;;4.28;;
30617;SDS011;17384;51.214;9.202;2024-01-16T02:25:37;13.82;;;3.83;;
30617;SDS011;17384;51.214;9.202;2024-01-16T02:28:04;11.80;;;3.13;;
30617;SDS011;17384;51.214;9.202;2024-01-16T02:30:29;10.93;;;3.80;;
30617;SDS011;17384;51.214;9.202;2024-01-16T02:32:55;13.00;;;3.85;;
30617;SDS011;17384;51.214;9.202;2024-01-16T02:35:21;9.95;;;3.63;;
30617;SDS011;17384;51.214;9.202;2024-01-16T02:37:46;13.82;;;3.83;;
30617;SDS011;17384;51.214;9.202;2024-01-16T02:40:12;12.32;;;5.03;;
30617;SDS011;17384;51.214;9.202;2024-01-16T02:42:38;8.70;;;3.72;;
30617;SDS011;17384;51.214;9.202;2024-01-16T02:45:04;13.75;;;4.22;;
30617;SDS011;17384;51.214;9.202;2024-01-16T02:47:30;9.52;;;4.28;;
30617;SDS011;17384;51.214;9.202;2024-01-16T02:49:56;12.80;;;4.05;;
30617;SDS011;17384;51.214;9.202;2024-01-16T02:52:22;19.88;;;4.90;;
30617;SDS011;17384;51.214;9.202;2024-01-16T02:54:47;10.77;;;3.92;;
30617;SDS011;17384;51.214;9.202;2024-01-16T02:57:13;9.05;;;4.10;;
30617;SDS011;17384;51.214;9.202;2024-01-16T02:59:38;12.43;;;4.53;;
30617;SDS011;17384;51.214;9.202;2024-01-16T03:02:04;7.57;;;4.75;;
30617;SDS011;17384;51.214;9.202;2024-01-16T03:04:29;8.02;;;4.43;;
30617;SDS011;17384;51.214;9.202;2024-01-16T03:06:55;11.15;;;4.65;;
30617;SDS011;17384;51.214;9.202;2024-01-16T03:09:20;8.55;;;4.55;;
30617;SDS011;17384;51.214;9.202;2024-01-16T03:11:46;16.23;;;5.40;;
30617;SDS011;17384;51.214;9.202;2024-01-16T03:14:12;16.23;;;4.53;;
30617;SDS011;17384;51.214;9.202;2024-01-16T03:16:38;10.85;;;4.28;;
30617;SDS011;17384;51.214;9.202;2024-01-16T03:19:04;16.15;;;4.78;;
30617;SDS011;17384;51.214;9.202;2024-01-16T03:21:30;10.68;;;4.40;;
30617;SDS011;17384;51.214;9.202;2024-01-16T03:23:55;18.45;;;3.47;;
30617;SDS011;17384;51.214;9.202;2024-01-16T03:26:21;15.98;;;4.88;;
30617;SDS011;17384;51.214;9.202;2024-01-16T03:28:47;9.38;;;4.00;;
30617;SDS011;17384;51.214;9.202;2024-01-16T03:31:13;14.15;;;4.97;;
30617;SDS011;17384;51.214;9.202;2024-01-16T03:33:39;9.68;;;4.15;;
30617;SDS011;17384;51.214;9.202;2024-01-16T03:36:07;23.90;;;3.97;;
30617;SDS011;17384;51.214;9.202;2024-01-16T03:38:34;7.18;;;3.67;;
30617;SDS011;17384;51.214;9.202;2024-01-16T03:41:01;21.05;;;4.53;;
30617;SDS011;17384;51.214;9.202;2024-01-16T03:43:28;12.43;;;3.75;;
30617;SDS011;17384;51.214;9.202;2024-01-16T03:45:56;16.08;;;4.50;;
30617;SDS011;17384;51.214;9.202;2024-01-16T03:48:22;10.68;;;4.22;;
30617;SDS011;17384;51.214;9.202;2024-01-16T03:50:48;8.45;;;3.97;;
30617;SDS011;17384;51.214;9.202;2024-01-16T03:53:13;18.50;;;5.28;;
30617;SDS011;17384;51.214;9.202;2024-01-16T03:55:39;11.93;;;4.15;;
30617;SDS011;17384;51.214;9.202;2024-01-16T03:58:05;10.25;;;4.53;;
30617;SDS011;17384;51.214;9.202;2024-01-16T04:00:30;14.73;;;5.53;;
30617;SDS011;17384;51.214;9.202;2024-01-16T04:02:55;14.30;;;4.93;;
30617;SDS011;17384;51.214;9.202;2024-01-16T04:05:21;8.45;;;3.67;;
30617;SDS011;17384;51.214;9.202;2024-01-16T04:07:46;13.27;;;3.88;;
30617;SDS011;17384;51.214;9.202;2024-01-16T04:10:12;10.13;;;4.10;;
30617;SDS011;17384;51.214;9.202;2024-01-16T04:12:37;11.15;;;4.18;;
30617;SDS011;17384;51.214;9.202;2024-01-16T04:15:03;6.80;;;3.55;;
30617;SDS011;17384;51.214;9.202;2024-01-16T04:17:29;11.88;;;3.78;;
30617;SDS011;17384;51.214;9.202;2024-01-16T04:19:54;8.48;;;3.70;;
30617;SDS011;17384;51.214;9.202;2024-01-16T04:22:20;8.60;;;3.67;;
30617;SDS011;17384;51.214;9.202;2024-01-16T04:24:46;11.65;;;3.85;;
30617;SDS011;17384;51.214;9.202;2024-01-16T04:27:12;16.60;;;4.20;;
30617;SDS011;17384;51.214;9.202;2024-01-16T04:29:38;16.77;;;4.78;;
30617;SDS011;17384;51.214;9.202;2024-01-16T04:32:04;8.15;;;4.05;;
30617;SDS011;17384;51.214;9.202;2024-01-16T04:34:29;12.73;;;4.53;;
30617;SDS011;17384;51.214;9.202;2024-01-16T04:36:55;10.60;;;3.95;;
30617;SDS011;17384;51.214;9.202;2024-01-16T04:39:20;8.80;;;4.28;;
30617;SDS011;17384;51.214;9.202;2024-01-16T04:41:48;15.57;;;3.80;;
30617;SDS011;17384;51.214;9.202;2024-01-16T04:44:16;6.90;;;3.70;;
30617;SDS011;17384;51.214;9.202;2024-01-16T04:46:42;12.93;;;4.93;;
30617;SDS011;17384;51.214;9.202;2024-01-16T04:49:08;10.23;;;4.65;;
30617;SDS011;17384;51.214;9.202;2024-01-16T04:51:33;12.68;;;4.43;;
30617;SDS011;17384;51.214;9.202;2024-01-16T04:53:59;14.25;;;4.15;;
30617;SDS011;17384;51.214;9.202;2024-01-16T04:56:25;11.85;;;4.15;;
30617;SDS011;17384;51.214;9.202;2024-01-16T04:58:50;10.77;;;4.40;;
30617;SDS011;17384;51.214;9.202;2024-01-16T05:01:17;13.07;;;4.68;;
30617;SDS011;17384;51.214;9.202;2024-01-16T05:03:43;8.80;;;3.88;;
30617;SDS011;17384;51.214;9.202;2024-01-16T05:06:13;14.75;;;5.32;;
30617;SDS011;17384;51.214;9.202;2024-01-16T05:08:42;8.70;;;4.93;;
30617;SDS011;17384;51.214;9.202;2024-01-16T05:11:08;19.05;;;4.50;;
30617;SDS011;17384;51.214;9.202;2024-01-16T05:13:34;14.73;;;4.57;;
30617;SDS011;17384;51.214;9.202;2024-01-16T05:16:00;8.68;;;4.15;;
30617;SDS011;17384;51.214;9.202;2024-01-16T05:18:26;13.35;;;4.03;;
30617;SDS011;17384;51.214;9.202;2024-01-16T05:20:51;16.50;;;4.28;;
30617;SDS011;17384;51.214;9.202;2024-01-16T05:23:17;11.77;;;3.95;;
30617;SDS011;17384;51.214;9.202;2024-01-16T05:25:43;9.25;;;3.90;;
30617;SDS011;17384;51.214;9.202;2024-01-16T05:28:08;14.27;;;4.43;;
30617;SDS011;17384;51.214;9.202;2024-01-16T05:30:34;8.45;;;4.53;;
30617;SDS011;17384;51.214;9.202;2024-01-16T05:33:00;10.02;;;3.88;;
30617;SDS011;17384;51.214;9.202;2024-01-16T05:35:28;17.40;;;3.97;;
30617;SDS011;17384;51.214;9.202;2024-01-16T05:37:54;11.40;;;5.20;;
30617;SDS011;17384;51.214;9.202;2024-01-16T05:40:20;10.30;;;4.00;;
30617;SDS011;17384;51.214;9.202;2024-01-16T05:42:47;15.63;;;4.80;;
30617;SDS011;17384;51.214;9.202;2024-01-16T05:45:13;10.80;;;4.20;;
30617;SDS011;17384;51.214;9.202;2024-01-16T05:47:39;10.48;;;4.13;;
30617;SDS011;17384;51.214;9.202;2024-01-16T05:50:04;20.17;;;4.20;;
30617;SDS011;17384;51.214;9.202;2024-01-16T05:52:30;12.82;;;4.25;;
30617;SDS011;17384;51.214;9.202;2024-01-16T05:54:56;8.82;;;3.65;;
30617;SDS011;17384;51.214;9.202;2024-01-16T05:57:23;11.88;;;3.33;;
30617;SDS011;17384;51.214;9.202;2024-01-16T05:59:49;16.63;;;3.38;;
30617;SDS011;17384;51.214;9.202;2024-01-16T06:02:14;11.00;;;4.68;;
30617;SDS011;17384;51.214;9.202;2024-01-16T06:04:40;12.18;;;4.55;;
30617;SDS011;17384;51.214;9.202;2024-01-16T06:07:05;18.02;;;5.78;;
30617;SDS011;17384;51.214;9.202;2024-01-16T06:09:37;9.70;;;3.17;;
30617;SDS011;17384;51.214;9.202;2024-01-16T06:12:05;9.85;;;3.83;;
30617;SDS011;17384;51.214;9.202;2024-01-16T06:14:32;11.52;;;3.55;;
30617;SDS011;17384;51.214;9.202;2024-01-16T06:16:58;6.68;;;3.85;;
30617;SDS011;17384;51.214;9.202;2024-01-16T06:19:23;6.35;;;3.35;;
30617;SDS011;17384;51.214;9.202;2024-01-16T06:21:48;13.30;;;4.07;;
30617;SDS011;17384;51.214;9.202;2024-01-16T06:24:14;8.73;;;2.75;;
30617;SDS011;17384;51.214;9.202;2024-01-16T06:26:39;6.35;;;2.97;;
30617;SDS011;17384;51.214;9.202;2024-01-16T06:29:05;10.82;;;2.60;;
30617;SDS011;17384;51.214;9.202;2024-01-16T06:31:31;10.38;;;3.08;;
30617;SDS011;17384;51.214;9.202;2024-01-16T06:33:56;11.48;;;2.60;;
30617;SDS011;17384;51.214;9.202;2024-01-16T06:36:22;7.20;;;2.58;;
30617;SDS011;17384;51.214;9.202;2024-01-16T06:38:47;15.65;;;3.53;;
30617;SDS011;17384;51.214;9.202;2024-01-16T06:41:13;6.32;;;2.85;;
30617;SDS011;17384;51.214;9.202;2024-01-16T06:43:38;13.52;;;3.00;;
30617;SDS011;17384;51.214;9.202;2024-01-16T06:46:04;7.72;;;3.25;;
30617;SDS011;17384;51.214;9.202;2024-01-16T06:48:30;8.98;;;2.90;;
30617;SDS011;17384;51.214;9.202;2024-01-16T06:50:56;6.25;;;2.97;;
30617;SDS011;17384;51.214;9.202;2024-01-16T06:53:21;8.88;;;3.47;;
30617;SDS011;17384;51.214;9.202;2024-01-16T06:55:48;9.55;;;3.40;;
30617;SDS011;17384;51.214;9.202;2024-01-16T06:58:13;11.85;;;3.35;;
30617;SDS011;17384;51.214;9.202;2024-01-16T07:00:39;11.70;;;4.32;;
30617;SDS011;17384;51.214;9.202;2024-01-16T07:03:06;14.20;;;5.63;;
30617;SDS011;17384;51.214;9.202;2024-01-16T07:05:32;4.78;;;3.00;;
30617;SDS011;17384;51.214;9.202;2024-01-16T07:07:58;8.05;;;3.22;;
30617;SDS011;17384;51.214;9.202;2024-01-16T07:10:23;10.00;;;3.08;;
30617;SDS011;17384;51.214;9.202;2024-01-16T07:12:49;14.80;;;4.38;;
30617;SDS011;17384;51.214;9.202;2024-01-16T07:15:16;8.65;;;3.45;;
30617;SDS011;17384;51.214;9.202;2024-01-16T07:17:43;8.70;;;3.33;;
30617;SDS011;17384;51.214;9.202;2024-01-16T07:20:08;9.43;;;3.25;;
30617;SDS011;17384;51.214;9.202;2024-01-16T07:22:36;9.60;;;4.07;;
30617;SDS011;17384;51.214;9.202;2024-01-16T07:25:05;9.25;;;3.33;;
30617;SDS011;17384;51.214;9.202;2024-01-16T07:27:31;18.65;;;4.43;;
30617;SDS011;17384;51.214;9.202;2024-01-16T07:29:57;15.05;;;4.32;;
30617;SDS011;17384;51.214;9.202;2024-01-16T07:32:22;11.82;;;4.20;;
30617;SDS011;17384;51.214;9.202;2024-01-16T07:34:48;15.65;;;4.72;;
30617;SDS011;17384;51.214;9.202;2024-01-16T07:37:13;11.65;;;4.78;;
30617;SDS011;17384;51.214;9.202;2024-01-16T07:39:40;11.27;;;4.65;;
30617;SDS011;17384;51.214;9.202;2024-01-16T07:42:06;17.45;;;4.90;;
30617;SDS011;17384;51.214;9.202;2024-01-16T07:44:33;12.27;;;5.18;;
30617;SDS011;17384;51.214;9.202;2024-01-16T07:46:58;14.63;;;5.15;;
30617;SDS011;17384;51.214;9.202;2024-01-16T07:49:24;11.23;;;4.50;;
30617;SDS011;17384;51.214;9.202;2024-01-16T07:51:49;11.00;;;5.65;;
30617;SDS011;17384;51.214;9.202;2024-01-16T07:54:15;8.00;;;4.63;;
30617;SDS011;17384;51.214;9.202;2024-01-16T07:56:40;15.50;;;5.28;;
30617;SDS011;17384;51.214;9.202;2024-01-16T07:59:05;13.23;;;5.40;;
30617;SDS011;17384;51.214;9.202;2024-01-16T08:01:32;17.58;;;5.45;;
30617;SDS011;17384;51.214;9.202;2024-01-16T08:03:57;11.70;;;5.82;;
30617;SDS011;17384;51.214;9.202;2024-01-16T08:06:23;14.15;;;5.53;;
30617;SDS011;17384;51.214;9.202;2024-01-16T08:08:49;20.50;;;5.97;;
30617;SDS011;17384;51.214;9.202;2024-01-16T08:11:15;12.00;;;5.95;;
30617;SDS011;17384;51.214;9.202;2024-01-16T08:13:41;13.30;;;5.25;;
30617;SDS011;17384;51.214;9.202;2024-01-16T08:16:07;14.05;;;5.18;;
30617;SDS011;17384;51.214;9.202;2024-01-16T08:18:33;16.10;;;5.38;;
30617;SDS011;17384;51.214;9.202;2024-01-16T08:20:59;10.80;;;5.40;;
30617;SDS011;17384;51.214;9.202;2024-01-16T08:23:24;12.27;;;5.90;;
30617;SDS011;17384;51.214;9.202;2024-01-16T08:25:50;8.70;;;5.47;;
30617;SDS011;17384;51.214;9.202;2024-01-16T08:28:17;17.15;;;5.78;;
30617;SDS011;17384;51.214;9.202;2024-01-16T08:30:42;12.23;;;5.40;;
30617;SDS011;17384;51.214;9.202;2024-01-16T08:33:08;14.10;;;5.47;;
30617;SDS011;17384;51.214;9.202;2024-01-16T08:35:33;15.68;;;5.28;;
30617;SDS011;17384;51.214;9.202;2024-01-16T08:37:59;11.32;;;5.35;;
30617;SDS011;17384;51.214;9.202;2024-01-16T08:40:24;14.52;;;5.35;;
30617;SDS011;17384;51.214;9.202;2024-01-16T08:42:50;13.93;;;5.75;;
30617;SDS011;17384;51.214;9.202;2024-01-16T08:45:22;13.25;;;5.55;;
30617;SDS011;17384;51.214;9.202;2024-01-16T08:47:48;10.57;;;5.47;;
30617;SDS011;17384;51.214;9.202;2024-01-16T08:50:14;10.73;;;6.35;;
30617;SDS011;17384;51.214;9.202;2024-01-16T08:52:40;12.65;;;6.40;;
30617;SDS011;17384;51.214;9.202;2024-01-16T08:55:07;13.80;;;5.78;;
30617;SDS011;17384;51.214;9.202;2024-01-16T08:57:34;9.63;;;5.55;;
30617;SDS011;17384;51.214;9.202;2024-01-16T08:59:59;8.75;;;4.95;;
30617;SDS011;17384;51.214;9.202;2024-01-16T09:02:25;13.10;;;5.40;;
30617;SDS011;17384;51.214;9.202;2024-01-16T09:04:54;16.02;;;5.50;;
30617;SDS011;17384;51.214;9.202;2024-01-16T09:07:20;17.35;;;6.57;;
30617;SDS011;17384;51.214;9.202;2024-01-16T09:09:45;10.85;;;6.93;;
30617;SDS011;17384;51.214;9.202;2024-01-16T09:12:11;14.35;;;6.25;;
30617;SDS011;17384;51.214;9.202;2024-01-16T09:14:37;15.55;;;6.97;;
30617;SDS011;17384;51.214;9.202;2024-01-16T09:17:02;16.08;;;8.40;;
30617;SDS011;17384;51.214;9.202;2024-01-16T09:19:28;15.90;;;7.65;;
30617;SDS011;17384;51.214;9.202;2024-01-16T09:21:54;12.93;;;7.55;;
30617;SDS011;17384;51.214;9.202;2024-01-16T09:24:20;11.80;;;7.50;;
30617;SDS011;17384;51.214;9.202;2024-01-16T09:26:46;13.50;;;7.20;;
30617;SDS011;17384;51.214;9.202;2024-01-16T09:29:11;12.43;;;7.25;;
30617;SDS011;17384;51.214;9.202;2024-01-16T09:31:37;14.77;;;6.88;;
30617;SDS011;17384;51.214;9.202;2024-01-16T09:34:03;8.25;;;5.43;;
30617;SDS011;17384;51.214;9.202;2024-01-16T09:36:29;10.18;;;6.32;;
30617;SDS011;17384;51.214;9.202;2024-01-16T09:38:54;12.27;;;5.80;;
30617;SDS011;17384;51.214;9.202;2024-01-16T09:41:20;14.35;;;6.18;;
30617;SDS011;17384;51.214;9.202;2024-01-16T09:43:46;12.27;;;5.68;;
30617;SDS011;17384;51.214;9.202;2024-01-16T09:46:12;10.77;;;5.63;;
30617;SDS011;17384;51.214;9.202;2024-01-16T09:48:41;11.32;;;5.63;;
30617;SDS011;17384;51.214;9.202;2024-01-16T09:51:10;17.67;;;5.35;;
30617;SDS011;17384;51.214;9.202;2024-01-16T09:53:39;12.40;;;5.05;;
30617;SDS011;17384;51.214;9.202;2024-01-16T09:56:06;15.30;;;6.55;;
30617;SDS011;17384;51.214;9.202;2024-01-16T09:58:40;11.88;;;6.47;;
30617;SDS011;17384;51.214;9.202;2024-01-16T10:01:06;9.75;;;5.47;;
30617;SDS011;17384;51.214;9.202;2024-01-16T10:03:31;9.13;;;5.10;;
30617;SDS011;17384;51.214;9.202;2024-01-16T10:06:01;15.48;;;5.18;;
30617;SDS011;17384;51.214;9.202;2024-01-16T10:08:31;9.18;;;4.75;;
30617;SDS011;17384;51.214;9.202;2024-01-16T10:10:57;9.32;;;4.20;;
30617;SDS011;17384;51.214;9.202;2024-01-16T10:13:23;10.15;;;4.00;;
30617;SDS011;17384;51.214;9.202;2024-01-16T10:15:52;14.13;;;4.20;;
30617;SDS011;17384;51.214;9.202;2024-01-16T10:18:27;8.05;;;3.83;;
30617;SDS011;17384;51.214;9.202;2024-01-16T10:20:58;16.80;;;4.45;;
30617;SDS011;17384;51.214;9.202;2024-01-16T10:23:28;15.23;;;4.22;;
30617;SDS011;17384;51.214;9.202;2024-01-16T10:26:12;6.93;;;4.03;;
30617;SDS011;17384;51.214;9.202;2024-01-16T10:28:39;4.85;;;4.25;;
30617;SDS011;17384;51.214;9.202;2024-01-16T10:31:06;7.25;;;4.82;;
30617;SDS011;17384;51.214;9.202;2024-01-16T10:33:36;11.40;;;4.32;;
30617;SDS011;17384;51.214;9.202;2024-01-16T10:36:10;6.97;;;3.80;;
30617;SDS011;17384;51.214;9.202;2024-01-16T10:38:44;16.92;;;5.40;;
30617;SDS011;17384;51.214;9.202;2024-01-16T10:41:14;19.67;;;4.65;;
30617;SDS011;17384;51.214;9.202;2024-01-16T10:43:43;10.10;;;4.40;;
30617;SDS011;17384;51.214;9.202;2024-01-16T10:46:13;9.77;;;4.55;;
30617;SDS011;17384;51.214;9.202;2024-01-16T10:48:41;14.15;;;4.63;;
30617;SDS011;17384;51.214;9.202;2024-01-16T10:51:23;14.85;;;4.80;;
30617;SDS011;17384;51.214;9.202;2024-01-16T10:53:48;10.07;;;4.65;;
30617;SDS011;17384;51.214;9.202;2024-01-16T10:56:15;12.50;;;5.05;;
30617;SDS011;17384;51.214;9.202;2024-01-16T10:58:42;28.70;;;6.07;;
30617;SDS011;17384;51.214;9.202;2024-01-16T11:01:10;15.70;;;5.25;;
30617;SDS011;17384;51.214;9.202;2024-01-16T11:03:38;17.42;;;5.43;;
30617;SDS011;17384;51.214;9.202;2024-01-16T11:06:07;14.40;;;5.75;;
30617;SDS011;17384;51.214;9.202;2024-01-16T11:08:35;14.38;;;5.90;;
30617;SDS011;17384;51.214;9.202;2024-01-16T11:11:02;13.07;;;5.32;;
30617;SDS011;17384;51.214;9.202;2024-01-16T11:13:31;11.23;;;5.15;;
30617;SDS011;17384;51.214;9.202;2024-01-16T11:18:33;14.40;;;5.13;;
30617;SDS011;17384;51.214;9.202;2024-01-16T11:21:00;15.68;;;5.40;;
30617;SDS011;17384;51.214;9.202;2024-01-16T11:23:29;13.50;;;5.70;;
30617;SDS011;17384;51.214;9.202;2024-01-16T11:25:54;14.27;;;4.95;;
30617;SDS011;17384;51.214;9.202;2024-01-16T11:28:20;11.05;;;5.38;;
30617;SDS011;17384;51.214;9.202;2024-01-16T11:30:45;12.70;;;5.43;;
30617;SDS011;17384;51.214;9.202;2024-01-16T11:39:22;7.55;;;5.30;;
30617;SDS011;17384;51.214;9.202;2024-01-16T11:41:58;18.90;;;6.22;;
30617;SDS011;17384;51.214;9.202;2024-01-16T11:44:40;14.73;;;6.43;;
30617;SDS011;17384;51.214;9.202;2024-01-16T11:47:15;16.60;;;5.63;;
30617;SDS011;17384;51.214;9.202;2024-01-16T11:49:41;12.87;;;5.50;;
30617;SDS011;17384;51.214;9.202;2024-01-16T11:52:06;15.23;;;6.57;;
30617;SDS011;17384;51.214;9.202;2024-01-16T11:54:33;16.00;;;5.75;;
30617;SDS011;17384;51.214;9.202;2024-01-16T11:59:57;11.02;;;6.22;;
30617;SDS011;17384;51.214;9.202;2024-01-16T12:02:37;11.77;;;5.90;;
30617;SDS011;17384;51.214;9.202;2024-01-16T12:05:11;13.43;;;6.28;;
30617;SDS011;17384;51.214;9.202;2024-01-16T12:07:42;10.23;;;6.38;;
30617;SDS011;17384;51.214;9.202;2024-01-16T12:10:10;9.95;;;5.60;;
30617;SDS011;17384;51.214;9.202;2024-01-16T12:12:35;15.63;;;6.60;;
30617;SDS011;17384;51.214;9.202;2024-01-16T12:15:01;12.35;;;6.43;;
30617;SDS011;17384;51.214;9.202;2024-01-16T12:17:26;13.57;;;6.32;;
30617;SDS011;17384;51.214;9.202;2024-01-16T12:19:52;18.52;;;5.38;;
30617;SDS011;17384;51.214;9.202;2024-01-16T12:22:18;9.52;;;5.45;;
30617;SDS011;17384;51.214;9.202;2024-01-16T12:24:47;13.88;;;4.90;;
30617;SDS011;17384;51.214;9.202;2024-01-16T12:27:13;9.88;;;4.80;;
30617;SDS011;17384;51.214;9.202;2024-01-16T12:29:40;13.98;;;5.18;;
30617;SDS011;17384;51.214;9.202;2024-01-16T12:32:10;21.10;;;6.72;;
30617;SDS011;17384;51.214;9.202;2024-01-16T12:34:47;20.08;;;4.95;;
30617;SDS011;17384;51.214;9.202;2024-01-16T12:37:13;13.70;;;4.55;;
30617;SDS011;17384;51.214;9.202;2024-01-16T12:39:39;10.90;;;2.80;;
30617;SDS011;17384;51.214;9.202;2024-01-16T12:42:07;6.90;;;3.38;;
30617;SDS011;17384;51.214;9.202;2024-01-16T12:44:34;6.80;;;3.28;;
30617;SDS011;17384;51.214;9.202;2024-01-16T12:47:01;7.68;;;3.08;;
30617;SDS011;17384;51.214;9.202;2024-01-16T12:49:27;7.53;;;2.78;;
30617;SDS011;17384;51.214;9.202;2024-01-16T12:52:14;5.63;;;2.75;;
30617;SDS011;17384;51.214;9.202;2024-01-16T12:54:58;4.32;;;2.78;;
30617;SDS011;17384;51.214;9.202;2024-01-16T12:57:25;8.90;;;2.83;;
30617;SDS011;17384;51.214;9.202;2024-01-16T12:59:51;6.88;;;3.08;;
30617;SDS011;17384;51.214;9.202;2024-01-16T13:02:23;5.38;;;2.42;;
30617;SDS011;17384;51.214;9.202;2024-01-16T13:07:25;8.90;;;2.30;;
30617;SDS011;17384;51.214;9.202;2024-01-16T13:10:05;5.75;;;2.67;;
30617;SDS011;17384;51.214;9.202;2024-01-16T13:12:32;8.32;;;2.20;;
30617;SDS011;17384;51.214;9.202;2024-01-16T13:14:58;7.93;;;2.38;;
30617;SDS011;17384;51.214;9.202;2024-01-16T13:17:24;5.05;;;1.88;;
30617;SDS011;17384;51.214;9.202;2024-01-16T13:19:49;14.10;;;3.92;;
30617;SDS011;17384;51.214;9.202;2024-01-16T13:22:15;11.25;;;2.53;;
30617;SDS011;17384;51.214;9.202;2024-01-16T13:24:41;10.73;;;2.80;;
30617;SDS011;17384;51.214;9.202;2024-01-16T13:27:07;4.00;;;2.33;;
30617;SDS011;17384;51.214;9.202;2024-01-16T13:29:34;6.28;;;2.28;;
30617;SDS011;17384;51.214;9.202;2024-01-16T13:32:03;8.10;;;2.47;;
30617;SDS011;17384;51.214;9.202;2024-01-16T13:34:29;8.02;;;2.70;;
30617;SDS011;17384;51.214;9.202;2024-01-16T13:36:55;6.22;;;2.70;;
30617;SDS011;17384;51.214;9.202;2024-01-16T13:39:25;7.03;;;3.35;;
30617;SDS011;17384;51.214;9.202;2024-01-16T13:41:51;4.55;;;2.38;;
30617;SDS011;17384;51.214;9.202;2024-01-16T13:44:17;7.63;;;2.10;;
30617;SDS011;17384;51.214;9.202;2024-01-16T13:46:42;4.78;;;1.90;;
30617;SDS011;17384;51.214;9.202;2024-01-16T13:49:08;6.25;;;2.70;;
30617;SDS011;17384;51.214;9.202;2024-01-16T13:51:33;9.52;;;2.25;;
30617;SDS011;17384;51.214;9.202;2024-01-16T13:53:59;7.88;;;2.78;;
30617;SDS011;17384;51.214;9.202;2024-01-16T13:56:25;3.25;;;2.28;;
30617;SDS011;17384;51.214;9.202;2024-01-16T13:58:51;7.30;;;2.33;;
30617;SDS011;17384;51.214;9.202;2024-01-16T14:01:16;10.75;;;2.20;;
30617;SDS011;17384;51.214;9.202;2024-01-16T14:03:43;6.30;;;2.33;;
30617;SDS011;17384;51.214;9.202;2024-01-16T14:06:11;4.85;;;2.35;;
30617;SDS011;17384;51.214;9.202;2024-01-16T14:08:38;6.90;;;2.67;;
30617;SDS011;17384;51.214;9.202;2024-01-16T14:11:04;4.97;;;1.95;;
30617;SDS011;17384;51.214;9.202;2024-01-16T14:13:30;8.10;;;2.38;;
30617;SDS011;17384;51.214;9.202;2024-01-16T14:15:56;6.05;;;2.63;;
30617;SDS011;17384;51.214;9.202;2024-01-16T14:18:22;7.18;;;2.72;;
30617;SDS011;17384;51.214;9.202;2024-01-16T14:20:48;7.32;;;2.22;;
30617;SDS011;17384;51.214;9.202;2024-01-16T14:23:13;5.18;;;2.15;;
30617;SDS011;17384;51.214;9.202;2024-01-16T14:25:39;7.68;;;2.25;;
30617;SDS011;17384;51.214;9.202;2024-01-16T14:28:04;6.25;;;2.42;;
30617;SDS011;17384;51.214;9.202;2024-01-16T14:30:34;5.32;;;2.38;;
30617;SDS011;17384;51.214;9.202;2024-01-16T14:33:00;8.73;;;2.28;;
30617;SDS011;17384;51.214;9.202;2024-01-16T14:35:26;6.50;;;1.92;;
30617;SDS011;17384;51.214;9.202;2024-01-16T14:37:52;6.65;;;2.67;;
30617;SDS011;17384;51.214;9.202;2024-01-16T14:40:18;9.18;;;2.78;;
30617;SDS011;17384;51.214;9.202;2024-01-16T14:42:51;10.52;;;2.97;;
30617;SDS011;17384;51.214;9.202;2024-01-16T14:45:20;6.68;;;2.22;;
30617;SDS011;17384;51.214;9.202;2024-01-16T14:47:47;7.43;;;2.38;;
30617;SDS011;17384;51.214;9.202;2024-01-16T14:50:14;10.55;;;2.58;;